Time;durP1;ratioP1;P1;durP2;ratioP2;P2;SDS_P1;SDS_P2;PMS_P1;PMS_P2;Temp;Humidity;BMP_temperature;BMP_pressure;BME280_temperature;BME280_humidity;BME280_pressure;Samples;Min_cycle;Max_cycle;Signal;HPM_P1;HPM_P2
2023/06/26 00:00:54;;;;;;;8.70;8.10;;;;;;;24.27;48.68;100473.34;4858820;29;20432;-78
2023/06/26 00:03:41;;;;;;;8.83;8.10;;;;;;;24.25;49.15;100490.09;4850302;29;20910;-77
2023/06/26 00:06:28;;;;;;;8.70;8.00;;;;;;;24.25;49.84;100478.78;4850126;29;20887;-78
2023/06/26 00:09:17;;;;;;;9.07;8.40;;;;;;;24.26;47.79;100480.31;4864739;29;21012;-78
2023/06/26 00:12:04;;;;;;;8.50;7.80;;;;;;;24.24;47.98;100471.66;4868742;29;20887;-78
2023/06/26 00:14:51;;;;;;;7.57;7.07;;;;;;;24.20;49.44;100476.97;4867316;29;20862;-78
2023/06/26 00:17:38;;;;;;;9.33;8.53;;;;;;;24.18;48.41;100473.97;4850941;29;20832;-77
2023/06/26 00:20:25;;;;;;;9.23;8.43;;;;;;;24.14;49.16;100467.22;4867176;29;20806;-78
2023/06/26 00:23:16;;;;;;;8.17;7.60;;;;;;;24.16;49.26;100465.34;4879987;29;20850;-78
2023/06/26 00:26:05;;;;;;;8.93;8.23;;;;;;;24.16;48.77;100465.34;4860579;29;20765;-78
2023/06/26 00:28:52;;;;;;;8.13;7.53;;;;;;;24.05;48.54;100467.84;4850591;29;20794;-78
2023/06/26 00:31:40;;;;;;;8.70;8.00;;;;;;;24.01;48.91;100465.41;4862988;29;20833;-77
2023/06/26 00:34:27;;;;;;;8.07;7.40;;;;;;;23.87;48.56;100464.19;4868258;29;20444;-77
2023/06/26 00:37:14;;;;;;;8.63;7.90;;;;;;;23.93;48.75;100464.72;4865866;29;20453;-78
2023/06/26 00:40:01;;;;;;;8.60;7.97;;;;;;;23.94;47.82;100459.81;4858626;29;20434;-78
2023/06/26 00:42:51;;;;;;;8.50;7.90;;;;;;;23.80;48.55;100455.72;4850582;29;20810;-78
2023/06/26 00:45:38;;;;;;;8.03;7.40;;;;;;;23.70;51.59;100463.31;4865916;29;20442;-77
2023/06/26 00:48:25;;;;;;;8.50;7.90;;;;;;;23.72;51.35;100467.06;4860420;29;20949;-78
2023/06/26 00:51:12;;;;;;;8.37;7.77;;;;;;;23.74;49.70;100458.78;4866419;29;20517;-77
2023/06/26 00:53:59;;;;;;;8.60;8.00;;;;;;;23.65;51.39;100462.19;4850997;29;20480;-78
2023/06/26 00:56:46;;;;;;;8.93;8.30;;;;;;;23.63;49.51;100450.75;4854049;29;20846;-78
2023/06/26 00:59:35;;;;;;;8.53;7.93;;;;;;;23.50;53.86;100451.00;4861864;29;20438;-78
2023/06/26 01:02:22;;;;;;;7.77;7.17;;;;;;;23.41;52.07;100451.59;4863605;29;20507;-78
2023/06/26 01:05:12;;;;;;;7.87;7.17;;;;;;;23.45;51.56;100449.13;4868572;29;20438;-77
2023/06/26 01:08:00;;;;;;;8.43;7.83;;;;;;;23.56;49.90;100448.69;4871860;29;20461;-78
2023/06/26 01:10:48;;;;;;;8.40;7.80;;;;;;;23.46;49.63;100445.00;4861272;29;20467;-77
2023/06/26 01:13:36;;;;;;;7.90;7.40;;;;;;;23.44;51.05;100450.47;4851506;29;20466;-77
2023/06/26 01:16:26;;;;;;;9.10;8.40;;;;;;;23.35;51.75;100456.69;4861851;29;20421;-77
2023/06/26 01:19:24;;;;;;;7.80;7.30;;;;;;;23.34;50.96;100446.75;4867920;29;20832;-76
2023/06/26 01:22:19;;;;;;;8.30;7.70;;;;;;;23.08;53.39;100444.34;4856336;29;20773;-78
2023/06/26 01:25:17;;;;;;;8.40;7.80;;;;;;;23.05;52.86;100442.66;4875486;29;20444;-78
2023/06/26 01:28:07;;;;;;;8.00;7.40;;;;;;;23.06;51.66;100435.72;4865471;29;20462;-78
2023/06/26 01:30:55;;;;;;;8.50;7.90;;;;;;;22.97;53.41;100432.75;4864271;29;20777;-78
2023/06/26 01:33:44;;;;;;;9.07;8.37;;;;;;;22.93;53.33;100427.50;4852586;29;20825;-77
2023/06/26 01:36:31;;;;;;;7.93;7.43;;;;;;;23.08;52.25;100426.69;4857245;29;20812;-78
2023/06/26 01:39:20;;;;;;;8.40;7.80;;;;;;;23.07;52.32;100431.56;4868484;29;20474;-76
2023/06/26 01:42:08;;;;;;;9.13;8.53;;;;;;;22.91;54.49;100432.19;4849540;29;21042;-77
2023/06/26 01:44:57;;;;;;;8.10;7.50;;;;;;;22.93;53.06;100421.84;4864373;29;20808;-77
2023/06/26 01:47:50;;;;;;;8.17;7.57;;;;;;;22.83;54.17;100429.41;4847665;29;20458;-77
2023/06/26 01:50:38;;;;;;;8.37;7.67;;;;;;;22.77;53.10;100423.19;4857336;29;20831;-77
2023/06/26 01:53:31;;;;;;;8.83;8.13;;;;;;;22.65;55.11;100435.41;4862558;29;20804;-78
2023/06/26 01:56:19;;;;;;;8.93;8.33;;;;;;;22.67;54.92;100437.69;4850743;29;20445;-78
2023/06/26 01:59:08;;;;;;;9.43;8.40;;;;;;;22.56;54.57;100432.44;4868543;29;20469;-78
2023/06/26 02:01:56;;;;;;;8.90;8.20;;;;;;;22.41;55.26;100438.84;4876612;29;20774;-77
2023/06/26 02:04:43;;;;;;;8.07;7.47;;;;;;;22.29;55.38;100428.47;4855279;29;20801;-78
2023/06/26 02:07:31;;;;;;;8.50;7.70;;;;;;;22.37;55.88;100432.03;4846207;29;20929;-78
2023/06/26 02:10:18;;;;;;;8.60;7.50;;;;;;;22.34;56.30;100433.19;4855265;29;20649;-78
2023/06/26 02:13:05;;;;;;;8.97;8.27;;;;;;;22.32;56.23;100436.56;4847271;29;20498;-78
2023/06/26 02:15:52;;;;;;;7.77;7.27;;;;;;;22.34;55.21;100433.19;4860165;29;20855;-78
2023/06/26 02:18:41;;;;;;;8.87;8.17;;;;;;;22.28;54.49;100436.19;4859371;29;20923;-79
2023/06/26 02:21:28;;;;;;;9.17;8.23;;;;;;;22.36;57.13;100441.81;4859228;29;20480;-78
2023/06/26 02:24:17;;;;;;;8.13;7.53;;;;;;;22.23;55.93;100444.78;4863601;29;20527;-78
2023/06/26 02:27:04;;;;;;;8.80;8.20;;;;;;;22.18;54.86;100448.56;4849753;29;20812;-79
2023/06/26 02:29:51;;;;;;;8.70;8.03;;;;;;;22.07;56.08;100443.28;4857341;29;21000;-78
2023/06/26 02:32:38;;;;;;;8.37;7.70;;;;;;;21.94;56.37;100449.06;4851183;29;20804;-78
2023/06/26 02:35:26;;;;;;;9.00;8.30;;;;;;;21.90;56.19;100451.50;4864335;29;20473;-79
2023/06/26 02:38:13;;;;;;;9.03;8.33;;;;;;;21.91;57.88;100458.63;4860906;29;20462;-78
2023/06/26 02:41:00;;;;;;;8.87;8.17;;;;;;;21.89;58.24;100459.22;4864690;29;20918;-78
2023/06/26 02:43:47;;;;;;;9.50;8.50;;;;;;;21.90;57.95;100462.78;4856106;29;20845;-78
2023/06/26 02:46:34;;;;;;;9.60;8.90;;;;;;;21.88;59.40;100465.41;4854710;29;20927;-78
2023/06/26 02:49:21;;;;;;;8.87;8.07;;;;;;;21.71;59.91;100462.34;4854374;29;20882;-78
2023/06/26 02:52:10;;;;;;;9.90;8.60;;;;;;;21.60;58.26;100462.66;4856905;29;20434;-77
2023/06/26 02:54:57;;;;;;;9.40;8.70;;;;;;;21.49;58.40;100463.00;4864971;29;20916;-77
2023/06/26 02:57:44;;;;;;;8.20;7.60;;;;;;;21.53;58.93;100474.63;4848649;29;20759;-78
2023/06/26 03:00:31;;;;;;;9.80;9.00;;;;;;;21.51;57.49;100485.69;4860295;29;20938;-78
2023/06/26 03:03:21;;;;;;;9.37;8.67;;;;;;;21.38;58.00;100488.63;4865030;29;20824;-78
2023/06/26 03:06:08;;;;;;;9.20;8.50;;;;;;;21.36;58.81;100488.41;4865107;29;20449;-78
2023/06/26 03:08:57;;;;;;;9.90;9.10;;;;;;;21.31;58.73;100497.78;4856917;29;20840;-78
2023/06/26 03:11:44;;;;;;;10.23;9.43;;;;;;;21.35;60.06;100498.16;4868538;29;20488;-78
2023/06/26 03:14:32;;;;;;;9.80;9.00;;;;;;;21.39;59.56;100498.56;4862960;29;20470;-78
2023/06/26 03:17:19;;;;;;;9.67;8.97;;;;;;;21.41;59.11;100502.34;4851821;29;21182;-78
2023/06/26 03:20:09;;;;;;;10.67;9.87;;;;;;;21.38;59.41;100502.69;4873412;29;20855;-77
2023/06/26 03:23:07;;;;;;;9.80;9.10;;;;;;;21.42;58.70;100511.50;4866139;29;20800;-78
2023/06/26 03:25:55;;;;;;;10.50;9.73;;;;;;;21.50;59.05;100512.31;4857139;29;21073;-79
2023/06/26 03:28:46;;;;;;;9.90;9.20;;;;;;;21.36;58.76;100510.91;4859857;29;20966;-78
2023/06/26 03:31:33;;;;;;;10.03;9.23;;;;;;;21.33;58.95;100517.66;4863440;29;20911;-78
2023/06/26 03:34:21;;;;;;;10.87;9.77;;;;;;;21.34;59.04;100507.91;4872075;29;20563;-77
2023/06/26 03:37:08;;;;;;;10.20;9.47;;;;;;;21.44;58.45;100532.16;4869967;29;20446;-78
2023/06/26 03:39:55;;;;;;;10.43;9.70;;;;;;;21.51;59.99;100516.63;4850986;29;20875;-77
2023/06/26 03:42:46;;;;;;;9.20;8.50;;;;;;;21.31;59.27;100526.66;4863143;29;20756;-78
2023/06/26 03:45:33;;;;;;;11.47;10.57;;;;;;;21.30;59.34;100522.31;4863492;29;20982;-77
2023/06/26 03:48:20;;;;;;;10.20;9.33;;;;;;;21.28;60.01;100522.13;4877835;29;20856;-77
2023/06/26 03:51:07;;;;;;;11.00;10.10;;;;;;;21.20;60.83;100526.19;4874533;29;20445;-77
2023/06/26 03:53:54;;;;;;;11.13;10.23;;;;;;;21.25;60.27;100520.44;4881087;29;20465;-77
2023/06/26 03:56:41;;;;;;;11.23;10.23;;;;;;;21.26;61.29;100521.16;4862506;29;20453;-78
2023/06/26 03:59:30;;;;;;;10.10;9.30;;;;;;;21.45;60.99;100530.06;4862598;29;20809;-78
2023/06/26 04:02:17;;;;;;;11.57;10.60;;;;;;;21.67;58.58;100526.66;4872594;29;20470;-78
2023/06/26 04:05:04;;;;;;;10.40;9.40;;;;;;;21.80;58.84;100537.78;4868366;29;21086;-77
2023/06/26 04:07:52;;;;;;;10.10;9.30;;;;;;;21.69;59.84;100535.28;4857763;29;20825;-78
2023/06/26 04:10:39;;;;;;;11.00;10.00;;;;;;;21.77;61.32;100536.09;4863346;29;20813;-78
2023/06/26 04:13:26;;;;;;;10.83;9.87;;;;;;;21.72;61.00;100548.25;4851274;29;20906;-78
2023/06/26 04:16:15;;;;;;;10.70;9.80;;;;;;;21.85;60.11;100548.13;4853885;29;21019;-78
2023/06/26 04:19:04;;;;;;;11.60;10.60;;;;;;;21.88;59.13;100553.38;4863301;29;20462;-78
2023/06/26 04:21:51;;;;;;;10.40;9.40;;;;;;;22.22;57.69;100550.28;4867640;29;20450;-78
2023/06/26 04:24:38;;;;;;;10.00;9.30;;;;;;;22.37;60.56;100555.94;4856037;29;20782;-77
2023/06/26 04:27:25;;;;;;;9.70;8.90;;;;;;;22.58;56.79;100559.38;4861628;29;20490;-78
2023/06/26 04:30:13;;;;;;;9.90;9.10;;;;;;;22.53;57.52;100560.34;4849584;29;20532;-77
2023/06/26 04:33:01;;;;;;;8.97;8.27;;;;;;;22.54;57.31;100567.47;4857748;29;20501;-77
2023/06/26 04:35:49;;;;;;;8.33;7.67;;;;;;;22.53;57.68;100563.16;4861434;29;20565;-77
2023/06/26 04:38:36;;;;;;;8.70;7.90;;;;;;;23.09;55.29;100575.53;4856435;29;20829;-78
2023/06/26 04:41:23;;;;;;;9.17;8.30;;;;;;;23.02;55.80;100570.66;4848977;29;20446;-78
2023/06/26 04:44:10;;;;;;;8.67;7.90;;;;;;;22.95;56.39;100571.41;4866901;29;20742;-78
2023/06/26 04:46:57;;;;;;;8.33;7.70;;;;;;;22.74;56.97;100579.31;4866914;29;20879;-78
2023/06/26 04:49:45;;;;;;;8.40;7.77;;;;;;;22.76;56.67;100571.03;4863411;29;20453;-78
2023/06/26 04:52:32;;;;;;;9.17;7.43;;;;;;;22.86;57.13;100574.81;4864809;29;20443;-78
2023/06/26 04:55:21;;;;;;;9.07;8.37;;;;;;;23.00;57.02;100573.31;4858501;29;20811;-78
2023/06/26 04:58:08;;;;;;;9.43;8.63;;;;;;;22.92;57.74;100578.19;4847572;29;20855;-78
2023/06/26 05:00:55;;;;;;;16.40;14.90;;;;;;;22.86;58.32;100580.44;4865191;29;20446;-77
2023/06/26 05:03:42;;;;;;;9.27;8.37;;;;;;;22.70;58.83;100578.91;4857471;29;20475;-78
2023/06/26 05:06:30;;;;;;;14.30;10.07;;;;;;;22.81;59.00;100577.81;4847513;29;20456;-78
2023/06/26 05:09:17;;;;;;;8.57;7.70;;;;;;;22.66;58.83;100585.50;4863338;29;20784;-78
2023/06/26 05:12:05;;;;;;;8.40;7.67;;;;;;;22.65;59.06;100592.44;4861223;29;20463;-77
2023/06/26 05:14:52;;;;;;;8.67;7.83;;;;;;;22.54;59.21;100599.19;4856386;29;20852;-78
2023/06/26 05:17:39;;;;;;;7.97;7.37;;;;;;;22.67;58.44;100592.63;4861462;29;20983;-78
2023/06/26 05:20:26;;;;;;;8.10;7.10;;;;;;;22.55;58.70;100599.94;4865139;29;20845;-78
2023/06/26 05:23:15;;;;;;;10.07;9.03;;;;;;;22.76;58.38;100599.22;4865562;29;20800;-78
2023/06/26 05:26:02;;;;;;;10.20;9.13;;;;;;;22.86;58.74;100602.25;4866946;29;20986;-78
2023/06/26 05:28:50;;;;;;;8.00;7.37;;;;;;;23.12;56.98;100599.78;4867452;29;20568;-77
2023/06/26 05:31:41;;;;;;;7.40;6.70;;;;;;;23.16;56.81;100602.28;4865764;29;20437;-79
2023/06/26 05:34:28;;;;;;;8.90;7.00;;;;;;;22.95;57.25;100605.25;4849790;29;20863;-77
2023/06/26 05:37:20;;;;;;;7.90;7.10;;;;;;;22.67;57.69;100601.09;4859286;29;20427;-78
2023/06/26 05:40:10;;;;;;;10.63;7.17;;;;;;;22.56;58.02;100593.00;4847475;29;20816;-77
2023/06/26 05:42:58;;;;;;;7.90;7.20;;;;;;;22.42;57.81;100597.28;4847601;29;20926;-78
2023/06/26 05:45:45;;;;;;;7.70;6.93;;;;;;;22.45;57.47;100607.44;4862166;29;20438;-77
2023/06/26 05:48:32;;;;;;;6.87;6.27;;;;;;;22.29;57.88;100611.50;4866999;29;20465;-78
2023/06/26 05:51:19;;;;;;;7.57;6.30;;;;;;;22.39;57.61;100618.09;4866449;29;20875;-78
2023/06/26 05:54:06;;;;;;;7.73;6.67;;;;;;;22.35;57.76;100626.16;4866938;29;20865;-77
2023/06/26 05:56:59;;;;;;;8.40;6.70;;;;;;;22.53;57.43;100625.13;4867035;29;20864;-78
2023/06/26 05:59:47;;;;;;;7.30;6.60;;;;;;;22.51;57.48;100630.53;4867131;29;20703;-77
2023/06/26 06:02:35;;;;;;;7.30;6.60;;;;;;;22.49;57.59;100635.97;4861488;29;20975;-78
2023/06/26 06:05:22;;;;;;;7.40;6.80;;;;;;;22.40;57.96;100633.69;4865909;29;21032;-78
2023/06/26 06:08:09;;;;;;;7.33;6.73;;;;;;;22.24;58.25;100632.13;4866186;29;20853;-78
2023/06/26 06:10:56;;;;;;;7.00;6.40;;;;;;;22.20;58.38;100637.38;4851704;29;20826;-77
2023/06/26 06:13:44;;;;;;;8.10;7.30;;;;;;;22.56;57.54;100629.63;4849324;29;20806;-78
2023/06/26 06:16:31;;;;;;;7.00;6.40;;;;;;;22.78;57.07;100636.03;4849004;29;20480;-77
2023/06/26 06:19:18;;;;;;;7.63;6.80;;;;;;;23.01;56.62;100636.81;4846609;29;21136;-78
2023/06/26 06:22:06;;;;;;;8.23;7.40;;;;;;;23.04;57.02;100646.97;4857434;29;20442;-77
2023/06/26 06:24:53;;;;;;;7.10;6.50;;;;;;;22.94;56.47;100643.22;4868168;29;20437;-77
2023/06/26 06:27:40;;;;;;;8.13;6.70;;;;;;;22.85;56.82;100651.44;4866923;29;20505;-78
2023/06/26 06:30:29;;;;;;;9.03;6.10;;;;;;;22.93;56.39;100650.16;4866861;29;20964;-77
2023/06/26 06:33:16;;;;;;;7.20;6.50;;;;;;;22.92;56.84;100648.66;4863591;29;20456;-78
2023/06/26 06:36:03;;;;;;;7.10;6.50;;;;;;;23.21;56.35;100649.25;4858620;29;20833;-78
2023/06/26 06:38:53;;;;;;;7.23;6.00;;;;;;;23.33;55.53;100653.94;4861664;29;20465;-78
2023/06/26 06:41:39;;;;;;;7.60;6.90;;;;;;;23.23;56.61;100669.16;4856398;29;20925;-78
2023/06/26 06:44:27;;;;;;;8.87;6.13;;;;;;;23.08;56.93;100655.78;4856836;29;20438;-78
2023/06/26 06:47:21;;;;;;;6.83;6.23;;;;;;;23.20;56.41;100665.44;4857581;29;20787;-78
2023/06/26 06:50:11;;;;;;;8.23;7.40;;;;;;;22.82;57.36;100670.25;4859269;29;21165;-78
2023/06/26 06:52:58;;;;;;;7.40;6.70;;;;;;;22.82;57.21;100673.06;4856185;29;20441;-77
2023/06/26 06:55:45;;;;;;;7.93;6.90;;;;;;;22.54;58.13;100671.69;4855936;29;20476;-79
2023/06/26 06:58:33;;;;;;;7.63;5.60;;;;;;;22.50;58.36;100683.31;4857244;29;20465;-79
2023/06/26 07:01:20;;;;;;;6.37;5.77;;;;;;;22.23;59.16;100698.19;4856560;29;20905;-79
2023/06/26 07:04:08;;;;;;;8.20;6.77;;;;;;;22.20;59.18;100690.84;4858790;29;20901;-79
2023/06/26 07:06:55;;;;;;;8.03;7.17;;;;;;;22.16;60.24;100696.09;4853732;29;20446;-78
2023/06/26 07:09:42;;;;;;;7.27;6.57;;;;;;;22.18;59.57;100699.88;4855804;29;20449;-79
2023/06/26 07:12:29;;;;;;;7.43;6.47;;;;;;;22.32;59.60;100711.75;4857717;29;20895;-79
2023/06/26 07:15:17;;;;;;;7.97;6.87;;;;;;;22.48;59.25;100716.16;4857198;29;20829;-79
2023/06/26 07:18:04;;;;;;;8.90;6.70;;;;;;;22.38;58.83;100721.56;4856462;29;20467;-78
2023/06/26 07:20:53;;;;;;;9.30;7.90;;;;;;;22.42;58.66;100732.47;4859096;29;20625;-78
2023/06/26 07:23:40;;;;;;;8.30;6.20;;;;;;;22.63;58.58;100724.69;4857570;29;20813;-78
2023/06/26 07:26:27;;;;;;;8.27;7.13;;;;;;;22.90;57.67;100735.84;4861030;29;20857;-79
2023/06/26 07:29:14;;;;;;;6.83;6.23;;;;;;;22.96;57.07;100742.03;4855798;29;20466;-78
2023/06/26 07:32:01;;;;;;;9.70;7.23;;;;;;;23.25;57.01;100723.69;4848869;29;21318;-79
2023/06/26 07:34:50;;;;;;;7.07;6.33;;;;;;;23.61;56.47;100715.03;4855973;29;20446;-78
2023/06/26 07:37:38;;;;;;;8.37;7.67;;;;;;;23.39;55.92;100727.88;4863159;29;20879;-79
2023/06/26 07:40:27;;;;;;;10.73;7.33;;;;;;;23.01;57.46;100720.63;4854008;29;20806;-79
2023/06/26 07:43:14;;;;;;;9.57;7.83;;;;;;;22.81;57.36;100719.47;4861774;29;20454;-79
2023/06/26 07:46:00;;;;;;;7.77;7.07;;;;;;;22.73;58.83;100713.06;4867542;29;20750;-80
2023/06/26 07:48:47;;;;;;;9.37;6.83;;;;;;;22.99;57.56;100709.16;4870167;29;20805;-80
2023/06/26 07:51:34;;;;;;;8.03;6.93;;;;;;;22.98;58.29;100704.84;4868119;29;20462;-78
2023/06/26 07:54:23;;;;;;;10.53;6.80;;;;;;;23.07;57.16;100707.84;4861404;29;20453;-79
2023/06/26 07:57:11;;;;;;;8.27;7.00;;;;;;;23.04;57.12;100703.34;4863107;29;20975;-79
2023/06/26 07:59:58;;;;;;;7.70;6.90;;;;;;;22.85;58.10;100725.50;4858518;29;20441;-80
2023/06/26 08:02:45;;;;;;;8.53;7.73;;;;;;;22.68;58.47;100716.78;4856808;29;20981;-80
2023/06/26 08:05:32;;;;;;;12.23;7.73;;;;;;;22.59;58.76;100724.28;4857269;29;20837;-79
2023/06/26 08:08:19;;;;;;;10.50;7.07;;;;;;;23.07;57.44;100733.22;4857731;29;20523;-79
2023/06/26 08:11:08;;;;;;;11.37;7.17;;;;;;;23.30;56.18;100724.84;4859613;29;20819;-79
2023/06/26 08:13:55;;;;;;;10.63;6.90;;;;;;;23.58;56.07;100739.53;4857373;29;20445;-79
2023/06/26 08:16:43;;;;;;;8.23;7.33;;;;;;;23.84;55.31;100739.13;4857270;29;20525;-79
2023/06/26 08:19:30;;;;;;;9.33;6.47;;;;;;;23.74;56.01;100735.34;4857746;29;20454;-79
2023/06/26 08:22:17;;;;;;;7.80;6.07;;;;;;;24.26;55.01;100740.19;4854728;29;20817;-79
2023/06/26 08:25:06;;;;;;;8.67;7.13;;;;;;;24.56;53.12;100739.34;4858620;29;20457;-78
2023/06/26 08:27:55;;;;;;;8.63;6.77;;;;;;;24.89;53.39;100741.63;4859589;29;21006;-78
2023/06/26 08:30:42;;;;;;;7.70;6.80;;;;;;;24.49;53.97;100752.16;4853902;29;20441;-78
2023/06/26 08:33:29;;;;;;;13.53;6.13;;;;;;;24.31;53.78;100753.34;4865936;29;20809;-77
2023/06/26 08:36:16;;;;;;;7.83;5.70;;;;;;;24.41;54.19;100757.06;4853932;29;20821;-78
2023/06/26 08:39:04;;;;;;;8.77;6.37;;;;;;;24.30;53.95;100762.38;4855138;29;20827;-78
2023/06/26 08:41:51;;;;;;;9.17;6.20;;;;;;;24.63;53.03;100756.25;4864651;29;21013;-78
2023/06/26 08:44:40;;;;;;;9.13;6.50;;;;;;;24.65;53.29;100759.28;4851360;29;20783;-78
2023/06/26 08:47:27;;;;;;;7.03;6.40;;;;;;;24.65;52.61;100762.09;4855103;29;20824;-78
2023/06/26 08:50:15;;;;;;;9.00;7.10;;;;;;;24.49;53.66;100774.75;4853174;29;20795;-78
2023/06/26 08:53:08;;;;;;;9.33;6.90;;;;;;;24.14;54.27;100772.97;4854562;29;20442;-78
2023/06/26 08:55:58;;;;;;;11.60;6.97;;;;;;;24.11;54.35;100776.16;4855232;29;20962;-80
2023/06/26 08:58:46;;;;;;;7.87;6.30;;;;;;;24.13;53.98;100779.94;4854742;29;20945;-80
2023/06/26 09:01:28;;;;;;;8.13;6.10;;;;;;;24.12;54.36;100786.91;4896975;24;20513;-83
2023/06/26 09:04:15;;;;;;;10.50;7.07;;;;;;;24.27;53.62;100786.88;4861148;29;20885;-83
2023/06/26 09:07:03;;;;;;;6.93;6.20;;;;;;;24.07;54.22;100790.69;4873581;29;20852;-82
2023/06/26 09:09:50;;;;;;;15.50;6.30;;;;;;;24.47;53.38;100794.34;4865482;29;20813;-82
2023/06/26 09:12:38;;;;;;;11.73;6.67;;;;;;;24.72;51.84;100786.00;4855817;29;20438;-82
2023/06/26 09:15:25;;;;;;;8.87;6.00;;;;;;;24.65;51.47;100798.84;4859590;29;20825;-83
2023/06/26 09:18:13;;;;;;;6.17;5.57;;;;;;;24.46;51.57;100792.09;4857284;29;20872;-83
2023/06/26 09:21:01;;;;;;;10.27;6.20;;;;;;;24.47;51.26;100793.59;4856078;29;20477;-83
2023/06/26 09:23:48;;;;;;;10.63;6.40;;;;;;;24.19;51.60;100803.09;4855914;29;20789;-83
2023/06/26 09:26:36;;;;;;;7.43;5.80;;;;;;;24.17;52.53;100793.66;4860120;29;20817;-83
2023/06/26 09:29:23;;;;;;;10.63;8.20;;;;;;;23.84;52.98;100789.19;4859933;29;20836;-83
2023/06/26 09:32:10;;;;;;;9.20;6.47;;;;;;;23.89;53.28;100783.38;4859374;29;20801;-82
2023/06/26 09:35:00;;;;;;;10.67;6.97;;;;;;;24.27;52.34;100778.41;4858153;29;20438;-83
2023/06/26 09:37:50;;;;;;;7.53;6.60;;;;;;;24.51;53.03;100783.41;4853571;29;20946;-82
2023/06/26 09:40:43;;;;;;;13.70;6.93;;;;;;;24.89;50.78;100788.94;4860893;29;20549;-82
2023/06/26 09:43:31;;;;;;;9.00;6.37;;;;;;;24.99;49.80;100793.41;4862380;29;20465;-83
2023/06/26 09:46:25;;;;;;;9.30;7.23;;;;;;;24.32;50.84;100793.66;4853225;29;20825;-83
2023/06/26 09:49:12;;;;;;;8.30;6.53;;;;;;;24.34;52.12;100808.69;4852223;29;20461;-83
2023/06/26 09:52:02;;;;;;;7.43;6.40;;;;;;;24.73;50.61;100802.38;4863792;29;20983;-84
2023/06/26 09:54:49;;;;;;;6.90;6.30;;;;;;;24.81;49.39;100810.84;4860987;29;20445;-83
2023/06/26 09:57:36;;;;;;;6.83;6.33;;;;;;;25.14;49.60;100793.31;4862135;29;20477;-82
2023/06/26 10:00:25;;;;;;;8.70;6.30;;;;;;;25.20;48.29;100819.28;4851996;29;20448;-83
2023/06/26 10:03:12;;;;;;;7.07;6.00;;;;;;;24.99;48.77;100807.53;4857711;29;20830;-83
2023/06/26 10:06:01;;;;;;;6.20;5.70;;;;;;;24.64;48.99;100813.53;4857254;29;20815;-82
2023/06/26 10:08:50;;;;;;;7.53;6.77;;;;;;;24.46;49.49;100821.09;4853780;29;20821;-83
2023/06/26 10:11:42;;;;;;;6.00;5.40;;;;;;;24.53;49.81;100822.41;4846714;29;20994;-82
2023/06/26 10:14:34;;;;;;;8.10;6.27;;;;;;;24.95;49.00;100818.50;4848397;29;20446;-82
2023/06/26 10:17:22;;;;;;;7.60;5.53;;;;;;;25.33;47.05;100816.25;4857717;29;20470;-83
2023/06/26 10:20:10;;;;;;;5.67;5.17;;;;;;;25.34;47.72;100817.75;4853474;29;20465;-82
2023/06/26 10:23:01;;;;;;;9.10;5.30;;;;;;;25.26;46.37;100821.94;4854692;29;20922;-82
2023/06/26 10:25:53;;;;;;;7.53;4.97;;;;;;;25.49;46.05;100819.72;4865228;29;20804;-83
2023/06/26 10:28:42;;;;;;;7.03;5.27;;;;;;;25.43;46.13;100819.94;4854576;29;20451;-82
2023/06/26 10:31:30;;;;;;;5.40;5.00;;;;;;;25.28;46.72;100828.53;4855836;29;20796;-83
2023/06/26 10:34:17;;;;;;;5.63;5.13;;;;;;;25.20;46.09;100829.88;4863546;29;20513;-82
2023/06/26 10:37:05;;;;;;;6.17;5.00;;;;;;;25.31;45.64;100818.88;4860439;29;20946;-83
2023/06/26 10:39:54;;;;;;;7.03;4.30;;;;;;;25.37;44.85;100830.72;4853874;29;20468;-83
2023/06/26 10:42:42;;;;;;;5.10;4.43;;;;;;;25.68;42.91;100845.44;4855313;29;20520;-83
2023/06/26 10:45:29;;;;;;;4.97;4.47;;;;;;;25.37;42.72;100827.16;4856045;29;20592;-83
2023/06/26 10:48:17;;;;;;;5.60;4.77;;;;;;;25.15;44.75;100828.78;4862027;29;20961;-83
2023/06/26 10:51:14;;;;;;;6.90;4.47;;;;;;;25.06;42.87;100849.19;4859234;29;20864;-82
2023/06/26 10:54:01;;;;;;;5.80;4.67;;;;;;;25.05;42.61;100836.38;4850507;29;20794;-82
2023/06/26 10:56:50;;;;;;;7.40;5.20;;;;;;;25.37;44.14;100822.25;4857453;29;20845;-81
2023/06/26 10:59:40;;;;;;;11.17;5.60;;;;;;;25.34;45.47;100831.91;4856783;29;20857;-83
2023/06/26 11:02:27;;;;;;;9.43;4.73;;;;;;;25.59;44.70;100831.91;4863174;29;20784;-82
2023/06/26 11:05:25;;;;;;;6.30;4.80;;;;;;;26.01;45.03;100828.56;4858780;29;20552;-83
2023/06/26 11:08:16;;;;;;;8.10;4.33;;;;;;;26.09;42.65;100839.84;4856862;29;20857;-83
2023/06/26 11:11:03;;;;;;;6.70;5.00;;;;;;;25.90;43.16;100826.22;4856278;29;20839;-82
2023/06/26 11:13:50;;;;;;;5.43;4.40;;;;;;;26.19;42.64;100843.53;4864221;29;20456;-82
2023/06/26 11:16:56;;;;;;;6.00;4.30;;;;;;;26.16;41.43;100856.00;4855238;29;20919;-81
2023/06/26 11:19:44;;;;;;;6.20;4.67;;;;;;;25.98;43.53;100846.72;4856914;29;20818;-82
2023/06/26 11:22:32;;;;;;;7.10;3.77;;;;;;;25.59;40.44;100838.31;4849776;29;20436;-83
2023/06/26 11:25:21;;;;;;;5.67;3.20;;;;;;;26.05;38.52;100847.97;4853943;29;20487;-81
2023/06/26 11:28:10;;;;;;;4.13;3.70;;;;;;;26.22;39.08;100845.19;4855499;29;21060;-83
2023/06/26 11:30:57;;;;;;;3.80;3.00;;;;;;;26.40;39.52;100860.88;4862926;29;20451;-82
2023/06/26 11:33:48;;;;;;;6.90;3.50;;;;;;;26.40;40.53;100846.72;4857264;29;20827;-81
2023/06/26 11:36:37;;;;;;;3.10;2.90;;;;;;;26.27;38.52;100866.84;4855204;29;20828;-82
2023/06/26 11:39:25;;;;;;;8.43;3.50;;;;;;;25.76;37.72;100857.47;4864371;29;20859;-83
2023/06/26 11:42:12;;;;;;;4.33;2.97;;;;;;;25.82;38.21;100856.63;4860486;29;20836;-83
2023/06/26 11:45:02;;;;;;;3.50;3.20;;;;;;;25.92;38.61;100859.63;4861192;29;20428;-83
2023/06/26 11:47:49;;;;;;;4.07;2.97;;;;;;;25.77;39.03;100860.47;4857852;29;21069;-83
2023/06/26 11:50:39;;;;;;;5.10;3.43;;;;;;;25.38;40.49;100868.28;4872368;29;20440;-82
2023/06/26 11:53:26;;;;;;;6.20;3.00;;;;;;;25.43;39.79;100873.72;4857373;29;20854;-82
2023/06/26 11:56:14;;;;;;;4.30;2.67;;;;;;;25.33;40.29;100861.53;4857302;29;20971;-82
2023/06/26 11:59:03;;;;;;;6.00;3.00;;;;;;;25.63;39.69;100855.66;4862902;29;20812;-81
2023/06/26 12:01:51;;;;;;;3.80;2.80;;;;;;;25.86;39.84;100856.22;4850533;29;20820;-82
2023/06/26 12:04:41;;;;;;;4.60;2.70;;;;;;;26.30;39.13;100871.38;4852121;29;20902;-82
2023/06/26 12:07:31;;;;;;;6.30;2.70;;;;;;;26.37;39.32;100862.03;4857461;29;20446;-82
2023/06/26 12:10:19;;;;;;;2.97;2.47;;;;;;;26.63;36.05;100873.53;4853481;29;20791;-82
2023/06/26 12:13:06;;;;;;;3.60;2.40;;;;;;;26.16;37.08;100875.84;4850501;29;20834;-82
2023/06/26 12:15:54;;;;;;;4.00;2.67;;;;;;;26.51;36.21;100871.75;4851479;29;20453;-81
2023/06/26 12:18:41;;;;;;;4.67;2.63;;;;;;;27.01;35.43;100875.91;4855772;29;20800;-81
2023/06/26 12:21:51;;;;;;;3.90;2.50;;;;;;;26.72;36.31;100872.84;4855857;29;20454;-81
2023/06/26 12:24:42;;;;;;;2.70;2.50;;;;;;;26.45;37.36;100866.31;4852403;29;20808;-82
2023/06/26 12:27:30;;;;;;;2.37;2.10;;;;;;;26.38;37.09;100884.13;4856324;29;20828;-83
2023/06/26 12:30:17;;;;;;;8.83;2.60;;;;;;;26.03;37.80;100876.16;4851754;29;20444;-84
2023/06/26 12:33:04;;;;;;;4.27;2.50;;;;;;;26.27;38.63;100883.84;4862487;29;20832;-82
2023/06/26 12:35:50;;;;;;;4.10;2.50;;;;;;;26.23;38.36;100897.69;4854092;29;20841;-82
2023/06/26 12:38:37;;;;;;;5.33;2.33;;;;;;;26.00;38.97;100892.22;4855124;29;20842;-82
2023/06/26 12:41:31;;;;;;;5.40;3.10;;;;;;;26.02;38.50;100891.63;4863161;29;20451;-83
2023/06/26 12:44:23;;;;;;;5.00;2.00;;;;;;;26.41;38.33;100904.91;4859489;29;20469;-83
2023/06/26 12:47:16;;;;;;;2.63;2.20;;;;;;;26.34;37.60;100911.38;4861518;29;20831;-84
2023/06/26 12:50:09;;;;;;;3.60;2.30;;;;;;;26.13;37.84;100913.84;4870262;29;20831;-84
2023/06/26 12:52:57;;;;;;;5.50;2.40;;;;;;;26.13;38.32;100902.50;4855735;29;20419;-83
2023/06/26 12:55:44;;;;;;;2.90;2.60;;;;;;;25.87;38.12;100919.34;4867017;29;20416;-85
2023/06/26 12:58:32;;;;;;;8.43;2.80;;;;;;;25.30;39.40;100919.25;4858225;29;20532;-84
2023/06/26 13:01:20;;;;;;;3.67;2.53;;;;;;;25.39;38.29;100921.47;4861306;29;20477;-84